Time;durP1;ratioP1;P1;durP2;ratioP2;P2;SDS_P1;SDS_P2;PMS_P1;PMS_P2;Temp;Humidity;BMP_temperature;BMP_pressure;BME280_temperature;BME280_humidity;BME280_pressure;Samples;Min_cycle;Max_cycle;Signal;HPM_P1;HPM_P2
2022/07/19 00:01:11;;;;;;;10.50;5.70;;;22.10;99.90;;;;;;5048449;28;20501;-73
2022/07/19 00:03:37;;;;;;;13.00;5.63;;;22.00;99.90;;;;;;5067402;28;20047;-73
2022/07/19 00:06:03;;;;;;;9.38;5.38;;;22.00;99.90;;;;;;5067175;28;20046;-73
2022/07/19 00:08:28;;;;;;;12.27;5.72;;;22.00;99.90;;;;;;5066356;28;20067;-73
2022/07/19 00:10:54;;;;;;;9.48;5.25;;;22.00;99.90;;;;;;5060882;28;20072;-73
2022/07/19 00:13:21;;;;;;;9.43;5.43;;;21.90;99.90;;;;;;5046776;28;20049;-72
2022/07/19 00:15:46;;;;;;;11.02;6.07;;;21.90;99.90;;;;;;5053842;28;20048;-73
2022/07/19 00:18:14;;;;;;;13.65;6.38;;;22.00;99.90;;;;;;5049474;28;20350;-73
2022/07/19 00:20:39;;;;;;;10.50;6.20;;;21.80;99.90;;;;;;5066933;28;20576;-73
2022/07/19 00:23:05;;;;;;;9.20;6.00;;;21.80;99.90;;;;;;5069215;28;20040;-73
2022/07/19 00:25:30;;;;;;;9.25;5.82;;;21.80;99.90;;;;;;5049427;28;20485;-73
2022/07/19 00:27:56;;;;;;;11.27;5.60;;;21.80;99.90;;;;;;5066469;28;20041;-73
2022/07/19 00:30:21;;;;;;;10.40;5.45;;;21.80;99.90;;;;;;5066526;28;20135;-73
2022/07/19 00:32:47;;;;;;;10.65;5.63;;;21.80;99.90;;;;;;5051211;28;20045;-73
2022/07/19 00:35:13;;;;;;;8.25;5.60;;;21.80;99.90;;;;;;5051500;28;20042;-73
2022/07/19 00:37:38;;;;;;;9.13;5.47;;;22.10;99.90;;;;;;5071346;28;20105;-73
2022/07/19 00:40:04;;;;;;;8.15;5.40;;;21.70;99.90;;;;;;5070580;28;20059;-73
2022/07/19 00:42:30;;;;;;;7.18;4.93;;;21.70;99.90;;;;;;5070359;28;20041;-74
2022/07/19 00:44:56;;;;;;;9.75;5.30;;;21.70;99.90;;;;;;5069932;28;20117;-73
2022/07/19 00:47:21;;;;;;;8.77;5.20;;;21.80;99.90;;;;;;5055034;28;20463;-73
2022/07/19 00:49:47;;;;;;;10.00;5.57;;;21.70;99.90;;;;;;5051845;28;20083;-73
2022/07/19 00:52:14;;;;;;;10.25;5.32;;;21.70;99.90;;;;;;5053352;28;20032;-73
2022/07/19 00:54:41;;;;;;;10.50;5.45;;;21.60;99.90;;;;;;5070882;28;20076;-73
2022/07/19 00:57:11;;;;;;;8.25;5.10;;;21.80;99.90;;;;;;5069352;28;20120;-73
2022/07/19 00:59:37;;;;;;;8.68;5.05;;;21.60;99.90;;;;;;5072377;28;20048;-73
2022/07/19 01:02:02;;;;;;;10.85;5.57;;;21.60;99.90;;;;;;5054429;28;20090;-73
2022/07/19 01:04:28;;;;;;;9.18;5.65;;;21.60;99.90;;;;;;5069399;28;20132;-73
2022/07/19 01:06:54;;;;;;;10.77;5.72;;;21.60;99.90;;;;;;5070950;28;20036;-73
2022/07/19 01:09:20;;;;;;;10.68;5.53;;;21.50;99.90;;;;;;5071275;28;20485;-73
2022/07/19 01:11:46;;;;;;;8.45;5.20;;;21.50;99.90;;;;;;5069186;28;20048;-74
2022/07/19 01:14:12;;;;;;;8.10;5.03;;;21.40;99.90;;;;;;5069256;28;20060;-73
2022/07/19 01:16:44;;;;;;;10.00;5.28;;;21.40;99.90;;;;;;5068810;28;20362;-74
2022/07/19 01:19:09;;;;;;;8.90;5.43;;;21.50;99.90;;;;;;5069116;28;20094;-75
2022/07/19 01:21:35;;;;;;;7.93;5.10;;;21.40;99.90;;;;;;5034531;28;20469;-75
2022/07/19 01:24:01;;;;;;;9.88;5.28;;;21.30;99.90;;;;;;5068628;28;20462;-73
2022/07/19 01:26:26;;;;;;;10.60;5.70;;;21.30;99.90;;;;;;5071016;28;20049;-73
2022/07/19 01:28:52;;;;;;;10.00;5.80;;;21.30;99.90;;;;;;5068975;28;20044;-73
2022/07/19 01:31:18;;;;;;;11.07;5.68;;;21.30;99.90;;;;;;5062072;28;20064;-73
2022/07/19 01:33:46;;;;;;;9.27;5.60;;;21.30;99.90;;;;;;5033839;28;20048;-74
2022/07/19 01:36:12;;;;;;;7.72;5.55;;;21.30;99.90;;;;;;5069265;28;20041;-73
2022/07/19 01:38:38;;;;;;;10.27;5.97;;;21.30;99.90;;;;;;5067688;28;20067;-73
2022/07/19 01:41:05;;;;;;;12.60;6.05;;;21.20;99.90;;;;;;5069337;28;20362;-74
2022/07/19 01:43:31;;;;;;;10.48;5.25;;;21.20;99.90;;;;;;5068006;28;20048;-73
2022/07/19 01:45:57;;;;;;;11.77;6.55;;;21.10;99.90;;;;;;5067533;28;20454;-73
2022/07/19 01:48:24;;;;;;;9.82;5.68;;;21.10;99.90;;;;;;5050413;28;20401;-73
2022/07/19 01:50:50;;;;;;;11.73;5.90;;;21.10;99.90;;;;;;5068605;28;20044;-73
2022/07/19 01:53:15;;;;;;;12.85;5.80;;;21.40;99.90;;;;;;5068020;28;20040;-73
2022/07/19 01:55:41;;;;;;;14.25;6.25;;;21.10;99.90;;;;;;5068227;28;20358;-73
2022/07/19 01:58:07;;;;;;;9.02;5.88;;;21.10;99.90;;;;;;5068172;28;20328;-73
2022/07/19 02:00:33;;;;;;;10.40;5.90;;;21.00;99.90;;;;;;5067415;28;20039;-73
2022/07/19 02:02:58;;;;;;;9.48;5.85;;;21.20;99.90;;;;;;5068441;28;20044;-73
2022/07/19 02:05:24;;;;;;;8.35;6.10;;;21.20;99.90;;;;;;5067873;28;20370;-73
2022/07/19 02:07:49;;;;;;;12.38;6.00;;;21.00;99.90;;;;;;5067713;28;20044;-73
2022/07/19 02:10:16;;;;;;;10.15;5.93;;;21.10;99.90;;;;;;5068124;28;20041;-73
2022/07/19 02:12:41;;;;;;;12.87;6.63;;;21.00;99.90;;;;;;5031802;28;1060927;-74
2022/07/19 02:15:08;;;;;;;11.90;5.95;;;21.00;99.90;;;;;;5068149;28;20766;-74
2022/07/19 02:17:34;;;;;;;12.18;6.50;;;20.90;99.90;;;;;;5069951;28;20041;-73
2022/07/19 02:19:59;;;;;;;9.60;5.80;;;20.90;99.90;;;;;;5068598;28;20396;-73
2022/07/19 02:22:25;;;;;;;10.77;6.10;;;20.90;99.90;;;;;;5068715;28;20045;-74
2022/07/19 02:24:50;;;;;;;10.88;6.22;;;20.80;99.90;;;;;;5070962;28;20467;-74
2022/07/19 02:27:16;;;;;;;11.98;5.93;;;20.80;99.90;;;;;;5068790;28;20401;-74
2022/07/19 02:29:42;;;;;;;10.15;6.20;;;20.80;99.90;;;;;;5068279;28;20056;-74
2022/07/19 02:32:08;;;;;;;10.82;6.40;;;20.80;99.90;;;;;;5051792;28;20044;-74
2022/07/19 02:34:34;;;;;;;11.18;6.45;;;20.80;99.90;;;;;;5070624;28;20155;-73
2022/07/19 02:37:00;;;;;;;9.73;6.63;;;21.00;99.90;;;;;;5051067;28;20049;-74
2022/07/19 02:39:25;;;;;;;11.25;6.78;;;20.70;99.90;;;;;;5068116;28;20409;-74
2022/07/19 02:41:51;;;;;;;9.98;6.60;;;21.10;99.90;;;;;;5070431;28;20052;-74
2022/07/19 02:44:16;;;;;;;10.13;6.80;;;20.70;99.90;;;;;;5051424;28;20602;-73
2022/07/19 02:46:42;;;;;;;10.65;6.80;;;20.80;99.90;;;;;;5068169;28;20036;-73
2022/07/19 02:49:07;;;;;;;12.32;6.63;;;20.60;99.90;;;;;;5049914;28;20412;-74
2022/07/19 02:51:33;;;;;;;12.20;7.40;;;20.60;99.90;;;;;;5068570;28;20126;-74
2022/07/19 02:53:59;;;;;;;13.00;6.30;;;20.60;99.90;;;;;;5050818;28;20062;-73
2022/07/19 02:56:24;;;;;;;8.98;6.28;;;20.60;99.90;;;;;;5067897;28;20127;-73
2022/07/19 02:58:50;;;;;;;9.55;6.40;;;20.60;99.90;;;;;;5067564;28;20049;-73
2022/07/19 03:01:16;;;;;;;9.10;6.50;;;20.60;99.90;;;;;;5067994;28;20032;-73
2022/07/19 03:03:44;;;;;;;10.27;6.30;;;20.60;99.90;;;;;;5067525;28;20423;-73
2022/07/19 03:06:10;;;;;;;11.23;6.47;;;21.10;99.90;;;;;;5050084;28;20045;-73
2022/07/19 03:08:40;;;;;;;8.85;6.28;;;20.60;99.90;;;;;;5052569;28;20044;-73
2022/07/19 03:11:06;;;;;;;9.23;6.82;;;20.60;99.90;;;;;;5069252;28;20053;-73
2022/07/19 03:13:31;;;;;;;10.45;6.57;;;20.60;99.90;;;;;;5050376;28;20052;-74
2022/07/19 03:15:57;;;;;;;12.95;6.75;;;20.60;99.90;;;;;;5068365;28;20080;-73
2022/07/19 03:18:23;;;;;;;12.00;6.47;;;20.60;99.90;;;;;;5069068;28;20044;-73
2022/07/19 03:20:48;;;;;;;12.25;6.80;;;20.60;99.90;;;;;;5068902;28;20496;-72
2022/07/19 03:23:14;;;;;;;14.60;6.97;;;20.40;99.90;;;;;;5069318;28;20041;-73
2022/07/19 03:25:40;;;;;;;13.80;6.93;;;20.50;99.90;;;;;;5069036;28;20044;-73
2022/07/19 03:28:05;;;;;;;11.48;6.65;;;20.40;99.90;;;;;;5051207;28;20045;-74
2022/07/19 03:30:34;;;;;;;13.55;6.97;;;20.40;99.90;;;;;;5068131;28;20045;-73
2022/07/19 03:32:59;;;;;;;11.88;7.43;;;20.40;99.90;;;;;;5069558;28;20040;-73
2022/07/19 03:35:25;;;;;;;11.25;7.15;;;20.40;99.90;;;;;;5069261;28;20038;-74
2022/07/19 03:37:51;;;;;;;11.05;7.25;;;20.40;99.90;;;;;;5051458;28;20052;-74
2022/07/19 03:40:16;;;;;;;10.90;6.78;;;20.40;99.90;;;;;;5068732;28;20040;-73
2022/07/19 03:42:42;;;;;;;12.43;7.40;;;20.30;99.90;;;;;;5068930;28;20044;-73
2022/07/19 03:45:08;;;;;;;12.05;6.88;;;20.30;99.90;;;;;;5049125;28;20490;-73
2022/07/19 03:47:34;;;;;;;12.15;7.45;;;20.20;99.90;;;;;;5070498;28;20569;-73
2022/07/19 03:49:59;;;;;;;13.75;7.30;;;20.30;99.90;;;;;;5068592;28;20131;-74
2022/07/19 03:52:25;;;;;;;13.38;7.40;;;20.20;99.90;;;;;;5067232;28;20044;-73
2022/07/19 03:54:51;;;;;;;14.27;7.68;;;20.20;99.90;;;;;;5050139;28;20167;-73
2022/07/19 03:57:17;;;;;;;12.50;7.10;;;20.20;99.90;;;;;;5067099;28;20485;-73
2022/07/19 03:59:43;;;;;;;15.38;7.45;;;20.20;99.90;;;;;;5065914;28;20040;-73
2022/07/19 04:02:08;;;;;;;10.90;7.35;;;20.20;99.90;;;;;;5052437;28;20451;-73
2022/07/19 04:04:34;;;;;;;12.00;7.35;;;20.20;99.90;;;;;;5067983;28;20053;-73
2022/07/19 04:07:00;;;;;;;13.95;7.03;;;20.20;99.90;;;;;;5066467;28;20450;-73
2022/07/19 04:09:25;;;;;;;13.68;7.10;;;20.20;99.90;;;;;;5067328;28;20401;-73
2022/07/19 04:11:51;;;;;;;11.15;7.32;;;20.20;99.90;;;;;;5032566;28;20044;-73
2022/07/19 04:14:16;;;;;;;10.13;7.18;;;20.20;99.90;;;;;;5041852;28;20160;-73
2022/07/19 04:16:42;;;;;;;11.27;7.30;;;20.20;99.90;;;;;;5068900;28;20047;-73
2022/07/19 04:19:08;;;;;;;23.30;7.22;;;20.30;99.90;;;;;;5067836;28;20044;-73
2022/07/19 04:21:33;;;;;;;11.45;6.85;;;20.30;99.90;;;;;;5065619;28;20437;-73
2022/07/19 04:23:59;;;;;;;10.73;7.28;;;20.20;99.90;;;;;;5067256;28;20048;-74
2022/07/19 04:26:25;;;;;;;13.32;6.88;;;20.30;99.90;;;;;;5067381;28;20052;-73
2022/07/19 04:28:51;;;;;;;12.40;6.78;;;20.30;99.90;;;;;;5031637;28;20469;-73
2022/07/19 04:31:17;;;;;;;10.52;7.00;;;20.30;99.90;;;;;;5067180;28;20048;-74
2022/07/19 04:33:43;;;;;;;11.27;6.85;;;20.30;99.90;;;;;;5049663;28;20159;-73
2022/07/19 04:36:08;;;;;;;11.90;6.82;;;20.40;99.90;;;;;;5068477;28;20448;-73
2022/07/19 04:38:34;;;;;;;10.65;7.03;;;20.40;99.90;;;;;;5067144;28;20907;-73
2022/07/19 04:41:00;;;;;;;11.43;7.20;;;20.40;99.90;;;;;;5066181;28;20125;-73
2022/07/19 04:43:26;;;;;;;10.18;6.53;;;20.50;99.90;;;;;;5048162;28;20055;-73
2022/07/19 04:45:52;;;;;;;10.05;6.60;;;20.50;99.90;;;;;;5067432;28;20138;-73
2022/07/19 04:48:17;;;;;;;13.00;6.50;;;20.50;99.90;;;;;;5066238;28;20080;-73
2022/07/19 04:50:43;;;;;;;10.02;6.47;;;20.60;99.90;;;;;;5049530;28;20094;-73
2022/07/19 04:53:09;;;;;;;12.27;6.85;;;20.50;99.90;;;;;;5048319;28;20051;-74
2022/07/19 04:55:36;;;;;;;9.98;6.82;;;20.70;99.90;;;;;;5066676;28;20112;-74
2022/07/19 04:58:02;;;;;;;11.90;6.68;;;20.90;99.90;;;;;;5032040;28;20051;-74
2022/07/19 05:00:28;;;;;;;10.75;6.60;;;20.50;99.90;;;;;;5065796;28;20477;-74
2022/07/19 05:02:54;;;;;;;10.40;6.32;;;20.60;99.90;;;;;;5066865;28;20055;-74
2022/07/19 05:05:20;;;;;;;11.40;5.90;;;20.60;99.90;;;;;;5066497;28;20036;-73
2022/07/19 05:07:46;;;;;;;13.35;6.28;;;20.70;99.90;;;;;;5067426;28;20037;-74
2022/07/19 05:10:12;;;;;;;15.18;7.40;;;20.70;99.90;;;;;;5065886;28;20040;-74
2022/07/19 05:12:38;;;;;;;10.93;6.18;;;20.80;99.90;;;;;;5039467;28;20056;-75
2022/07/19 05:15:05;;;;;;;11.88;6.32;;;21.20;99.90;;;;;;5049358;28;20036;-75
2022/07/19 05:17:31;;;;;;;14.52;6.25;;;20.90;99.90;;;;;;5065912;28;20072;-75
2022/07/19 05:19:56;;;;;;;17.48;6.63;;;20.90;99.90;;;;;;5051744;28;20041;-74
2022/07/19 05:22:24;;;;;;;10.98;6.15;;;21.00;99.90;;;;;;5070759;28;20080;-74
2022/07/19 05:24:50;;;;;;;13.27;5.97;;;21.00;99.90;;;;;;5069699;28;20048;-75
2022/07/19 05:27:16;;;;;;;16.27;6.75;;;21.10;99.90;;;;;;5070287;28;20106;-74
2022/07/19 05:29:42;;;;;;;12.23;5.22;;;21.10;99.90;;;;;;5068822;28;20048;-74
2022/07/19 05:32:07;;;;;;;11.15;5.45;;;21.20;99.90;;;;;;5030810;28;20056;-74
2022/07/19 05:34:33;;;;;;;11.77;5.57;;;21.20;99.90;;;;;;5049881;28;20045;-74
2022/07/19 05:36:58;;;;;;;9.32;5.40;;;21.30;99.90;;;;;;5057183;28;20048;-74
2022/07/19 05:39:24;;;;;;;9.27;5.80;;;21.30;99.90;;;;;;5069010;28;20071;-74
2022/07/19 05:41:49;;;;;;;12.45;5.82;;;21.40;99.90;;;;;;5069343;28;20124;-74
2022/07/19 05:44:15;;;;;;;11.25;6.07;;;21.40;99.90;;;;;;5050532;28;20049;-74
2022/07/19 05:46:41;;;;;;;8.77;5.65;;;21.50;99.90;;;;;;5068866;28;20032;-73
2022/07/19 05:49:08;;;;;;;10.90;5.80;;;21.60;99.90;;;;;;5069858;28;20470;-74
2022/07/19 05:51:35;;;;;;;13.35;5.80;;;21.70;99.90;;;;;;5051409;28;20371;-74
2022/07/19 05:54:00;;;;;;;12.43;5.70;;;21.70;99.90;;;;;;5068817;28;20064;-74
2022/07/19 05:56:27;;;;;;;9.77;5.53;;;21.80;99.90;;;;;;5070067;28;20040;-74
2022/07/19 05:58:53;;;;;;;10.82;5.53;;;21.80;99.90;;;;;;5067270;28;20049;-74
2022/07/19 06:01:19;;;;;;;9.10;5.25;;;21.90;99.90;;;;;;5068991;28;20052;-75
2022/07/19 06:03:56;;;;;;;10.57;5.70;;;22.00;99.90;;;;;;5069815;28;20032;-75
2022/07/19 06:06:24;;;;;;;9.88;5.00;;;22.00;99.90;;;;;;5069170;28;20469;-75
2022/07/19 06:08:50;;;;;;;8.65;5.45;;;22.10;99.90;;;;;;5069212;28;20044;-75
2022/07/19 06:11:16;;;;;;;8.65;5.30;;;22.10;99.90;;;;;;5051376;28;20509;-76
2022/07/19 06:13:43;;;;;;;9.35;5.57;;;22.10;99.90;;;;;;5049348;28;20044;-75
2022/07/19 06:16:10;;;;;;;11.48;5.53;;;22.20;99.90;;;;;;5069481;28;20498;-75
2022/07/19 06:18:36;;;;;;;13.05;6.05;;;22.30;99.90;;;;;;5051104;28;20413;-75
2022/07/19 06:21:08;;;;;;;8.65;5.55;;;22.30;99.90;;;;;;5050137;28;20052;-75
2022/07/19 06:23:34;;;;;;;9.32;5.10;;;22.40;99.90;;;;;;5069245;28;20138;-74
2022/07/19 06:25:59;;;;;;;13.70;6.00;;;22.50;99.90;;;;;;5068883;28;20115;-75
2022/07/19 06:28:26;;;;;;;9.75;5.70;;;22.60;99.90;;;;;;5066584;28;20395;-75
2022/07/19 06:30:52;;;;;;;9.95;5.28;;;22.60;99.90;;;;;;5049984;28;20040;-75
2022/07/19 06:33:18;;;;;;;9.98;4.97;;;22.70;99.90;;;;;;5069433;28;20098;-75
2022/07/19 06:35:44;;;;;;;10.77;4.85;;;22.70;99.90;;;;;;5050355;28;20063;-75
2022/07/19 06:38:09;;;;;;;8.98;4.90;;;22.80;99.90;;;;;;5068802;28;20128;-75
2022/07/19 06:40:35;;;;;;;8.50;5.18;;;22.90;99.90;;;;;;5068342;28;20131;-75
2022/07/19 06:43:00;;;;;;;11.60;5.70;;;23.00;99.90;;;;;;5050403;28;20045;-75
2022/07/19 06:45:26;;;;;;;9.75;5.22;;;23.00;99.90;;;;;;5068367;28;20037;-76
2022/07/19 06:47:52;;;;;;;8.73;4.75;;;23.10;99.90;;;;;;5051213;28;20045;-76
2022/07/19 06:50:19;;;;;;;10.68;5.35;;;23.10;99.90;;;;;;5068340;28;20047;-76
2022/07/19 06:52:44;;;;;;;8.10;5.10;;;23.20;99.90;;;;;;5050640;28;20052;-76
2022/07/19 06:55:10;;;;;;;12.43;5.20;;;23.30;99.90;;;;;;5031341;28;20040;-76
2022/07/19 06:57:36;;;;;;;9.32;4.82;;;23.40;99.90;;;;;;5067325;28;20127;-75
2022/07/19 07:00:04;;;;;;;9.02;5.10;;;23.50;99.90;;;;;;5067865;28;20040;-75
2022/07/19 07:02:30;;;;;;;7.97;4.55;;;23.50;99.90;;;;;;5060606;28;20041;-77
2022/07/19 07:04:55;;;;;;;10.15;4.97;;;23.60;99.90;;;;;;5044558;28;20127;-76
2022/07/19 07:07:21;;;;;;;10.52;5.10;;;23.70;99.90;;;;;;5034075;28;20173;-76
2022/07/19 07:09:47;;;;;;;13.40;5.00;;;23.80;99.90;;;;;;5068852;28;20147;-75
2022/07/19 07:12:12;;;;;;;9.15;5.03;;;23.80;99.90;;;;;;5039803;28;20053;-76
2022/07/19 07:14:38;;;;;;;10.60;4.95;;;23.90;99.90;;;;;;5048116;28;20052;-76
2022/07/19 07:17:04;;;;;;;9.48;4.15;;;24.00;99.90;;;;;;5048366;28;20071;-75
2022/07/19 07:19:29;;;;;;;7.80;4.75;;;24.00;99.90;;;;;;5047456;28;20052;-76
2022/07/19 07:21:57;;;;;;;7.53;4.63;;;24.10;99.90;;;;;;5048383;28;20045;-76
2022/07/19 07:24:23;;;;;;;10.95;4.85;;;24.20;99.90;;;;;;5029726;28;20055;-75
2022/07/19 07:26:48;;;;;;;6.35;4.35;;;24.30;99.90;;;;;;5049164;28;20525;-74
2022/07/19 07:29:14;;;;;;;7.22;4.47;;;24.40;99.90;;;;;;5048332;28;20086;-74
2022/07/19 07:31:39;;;;;;;12.07;4.43;;;24.50;99.90;;;;;;5045808;28;20394;-74
2022/07/19 07:34:05;;;;;;;7.47;4.38;;;24.60;99.90;;;;;;5029756;28;20052;-74
2022/07/19 07:36:31;;;;;;;7.18;4.45;;;24.70;99.90;;;;;;5050500;28;20052;-74
2022/07/19 07:38:56;;;;;;;8.43;4.68;;;24.80;99.90;;;;;;5049001;28;20044;-74
2022/07/19 07:41:22;;;;;;;8.57;4.70;;;24.80;99.90;;;;;;5048873;28;20103;-75
2022/07/19 07:43:47;;;;;;;10.95;4.90;;;25.00;99.90;;;;;;5046453;28;20068;-75
2022/07/19 07:46:13;;;;;;;10.00;4.78;;;25.10;99.90;;;;;;5047201;28;20039;-74
2022/07/19 07:48:39;;;;;;;9.02;4.15;;;25.20;99.90;;;;;;5047638;28;20941;-75
2022/07/19 07:51:05;;;;;;;5.55;3.85;;;25.30;99.90;;;;;;5028387;28;20509;-75
2022/07/19 07:53:30;;;;;;;6.38;4.03;;;25.50;99.90;;;;;;5048178;28;20355;-74
2022/07/19 07:55:56;;;;;;;6.10;4.07;;;25.50;99.90;;;;;;5051402;28;20033;-75
2022/07/19 07:58:21;;;;;;;8.20;4.30;;;25.70;99.90;;;;;;5049302;28;20059;-76
2022/07/19 08:00:47;;;;;;;6.40;3.45;;;25.80;99.90;;;;;;5047278;28;20045;-75
2022/07/19 08:03:13;;;;;;;8.40;3.97;;;26.00;99.90;;;;;;5046439;28;20080;-75
2022/07/19 08:05:39;;;;;;;11.35;3.97;;;26.10;99.90;;;;;;5032146;28;20071;-74
2022/07/19 08:08:05;;;;;;;8.55;4.07;;;26.20;99.90;;;;;;5032773;28;20060;-74
2022/07/19 08:10:32;;;;;;;6.90;3.90;;;26.40;99.90;;;;;;5048180;28;20041;-74
2022/07/19 08:12:58;;;;;;;11.35;3.78;;;26.40;99.90;;;;;;5044124;28;20065;-74
2022/07/19 08:15:24;;;;;;;6.47;3.63;;;26.50;99.90;;;;;;5045692;28;20504;-74
2022/07/19 08:17:50;;;;;;;8.48;4.05;;;26.60;99.80;;;;;;5047758;28;20049;-74
2022/07/19 08:20:16;;;;;;;8.30;3.60;;;26.70;99.90;;;;;;5046126;28;20045;-74
2022/07/19 08:22:42;;;;;;;8.05;3.35;;;26.80;99.80;;;;;;5050729;28;20485;-74
2022/07/19 08:25:09;;;;;;;8.10;3.78;;;26.90;99.90;;;;;;5047000;28;20126;-75
2022/07/19 08:27:34;;;;;;;9.80;3.80;;;27.00;99.90;;;;;;5046345;28;20389;-74
2022/07/19 08:30:01;;;;;;;9.48;3.67;;;27.10;99.70;;;;;;5046315;28;20052;-74
2022/07/19 08:32:26;;;;;;;7.95;3.40;;;27.20;99.20;;;;;;5046886;28;20463;-75
2022/07/19 08:34:52;;;;;;;8.00;3.58;;;27.40;98.90;;;;;;5045884;28;20135;-74
2022/07/19 08:37:18;;;;;;;7.60;3.50;;;27.40;98.00;;;;;;5043286;28;20182;-74
2022/07/19 08:39:43;;;;;;;6.88;3.08;;;27.50;97.80;;;;;;5045967;28;20072;-74
2022/07/19 08:42:09;;;;;;;6.65;3.42;;;27.60;97.80;;;;;;5047459;28;20048;-74
2022/07/19 08:44:38;;;;;;;8.15;3.47;;;27.70;98.00;;;;;;5044297;28;20136;-74
2022/07/19 08:47:05;;;;;;;8.77;3.30;;;27.80;98.30;;;;;;5042295;28;20492;-75
2022/07/19 08:49:31;;;;;;;6.68;3.30;;;27.90;98.10;;;;;;5041161;28;20187;-75
2022/07/19 08:51:57;;;;;;;8.05;3.20;;;28.10;97.30;;;;;;5024958;28;20132;-74
2022/07/19 08:54:23;;;;;;;10.73;3.75;;;28.30;97.50;;;;;;5036462;28;20048;-74
2022/07/19 08:59:33;;;;;;;10.30;3.67;;;28.50;97.70;;;;;;5030362;28;20041;-75
2022/07/19 09:01:58;;;;;;;7.35;3.55;;;28.60;97.50;;;;;;5048808;28;20071;-74
2022/07/19 09:04:30;;;;;;;7.70;3.45;;;28.80;97.30;;;;;;5049364;28;20037;-74
2022/07/19 09:06:58;;;;;;;7.57;3.25;;;28.90;97.20;;;;;;5048758;28;20048;-74
2022/07/19 09:09:28;;;;;;;12.80;3.35;;;29.00;97.00;;;;;;5047155;28;20056;-74
2022/07/19 09:11:56;;;;;;;7.63;3.10;;;29.10;95.90;;;;;;5060007;28;20044;-74
2022/07/19 09:14:27;;;;;;;9.30;3.13;;;29.20;95.90;;;;;;5083268;28;20094;-74
2022/07/19 09:16:57;;;;;;;9.65;2.78;;;29.30;95.90;;;;;;5090313;28;20221;-75
2022/07/19 09:19:25;;;;;;;8.73;3.15;;;29.50;95.20;;;;;;5081640;28;20041;-74
2022/07/19 09:22:04;;;;;;;10.60;2.90;;;29.60;94.70;;;;;;5054019;28;20439;-74
2022/07/19 09:24:32;;;;;;;7.85;3.00;;;29.70;94.80;;;;;;5048652;28;20044;-73
2022/07/19 09:26:59;;;;;;;11.05;2.80;;;29.90;94.40;;;;;;5065718;28;20517;-73
2022/07/19 09:29:26;;;;;;;7.15;2.75;;;30.00;94.40;;;;;;5065152;28;20433;-73
2022/07/19 09:32:18;;;;;;;8.75;2.63;;;30.20;93.50;;;;;;5066464;28;20052;-74
2022/07/19 09:34:55;;;;;;;6.85;3.05;;;30.30;93.40;;;;;;5066781;28;20045;-74
2022/07/19 09:37:28;;;;;;;8.15;2.80;;;30.40;93.80;;;;;;5064375;28;20052;-74
2022/07/19 09:39:56;;;;;;;7.63;2.75;;;30.60;94.00;;;;;;5066234;28;20043;-73
2022/07/19 09:42:24;;;;;;;8.90;2.92;;;30.70;93.30;;;;;;5067388;28;20123;-73
2022/07/19 09:44:59;;;;;;;6.53;2.70;;;30.80;92.70;;;;;;5050093;28;20052;-74
2022/07/19 09:47:39;;;;;;;9.38;2.60;;;31.10;92.50;;;;;;5069456;28;20093;-73
2022/07/19 09:50:10;;;;;;;5.68;2.47;;;31.30;92.10;;;;;;5069449;28;20056;-74
2022/07/19 09:52:36;;;;;;;8.27;2.58;;;31.60;91.60;;;;;;5050655;28;20067;-74
2022/07/19 09:55:04;;;;;;;5.57;2.70;;;31.80;91.70;;;;;;5068076;28;20037;-74
2022/07/19 09:57:35;;;;;;;8.85;2.55;;;32.10;91.70;;;;;;5062029;28;20485;-73
2022/07/19 10:00:01;;;;;;;6.72;2.60;;;32.50;91.20;;;;;;5047872;28;20053;-74
2022/07/19 10:02:28;;;;;;;8.57;2.80;;;33.20;91.20;;;;;;5050611;28;20041;-74
2022/07/19 10:04:56;;;;;;;8.60;2.65;;;33.80;89.90;;;;;;5069054;28;20087;-74
2022/07/19 10:07:23;;;;;;;5.35;2.60;;;34.40;89.20;;;;;;5068813;28;20063;-74
2022/07/19 10:09:50;;;;;;;7.28;2.40;;;35.70;88.90;;;;;;5048247;28;20052;-74
2022/07/19 10:12:16;;;;;;;6.78;2.40;;;36.30;87.90;;;;;;5068674;28;20045;-74
2022/07/19 10:14:43;;;;;;;4.15;2.50;;;37.70;84.90;;;;;;5067750;28;20541;-75
2022/07/19 10:17:18;;;;;;;5.95;2.35;;;37.80;82.30;;;;;;5071714;28;20415;-77
2022/07/19 10:19:48;;;;;;;6.20;2.60;;;38.60;79.50;;;;;;5069862;28;20392;-74
2022/07/19 10:22:17;;;;;;;8.05;2.58;;;40.00;78.10;;;;;;5068702;28;20921;-76
2022/07/19 10:24:51;;;;;;;11.15;2.33;;;40.20;77.70;;;;;;5049075;28;20050;-74
2022/07/19 10:27:34;;;;;;;7.82;2.30;;;41.60;73.20;;;;;;5058931;28;20626;-74
2022/07/19 10:30:12;;;;;;;4.78;2.30;;;42.40;71.40;;;;;;5059326;28;20052;-74
2022/07/19 10:32:40;;;;;;;8.15;2.45;;;42.60;67.90;;;;;;5030683;28;20047;-74
2022/07/19 10:35:26;;;;;;;7.30;2.28;;;43.60;68.30;;;;;;5045877;28;20508;-73
2022/07/19 10:37:53;;;;;;;6.75;2.13;;;44.30;65.80;;;;;;5047244;28;20337;-73
2022/07/19 10:40:46;;;;;;;12.82;2.35;;;45.10;63.00;;;;;;5061443;28;20104;-73
2022/07/19 10:43:13;;;;;;;6.55;2.10;;;45.80;61.10;;;;;;5019409;28;20042;-74
2022/07/19 10:46:00;;;;;;;7.32;2.22;;;45.70;61.70;;;;;;5040519;28;20053;-70
2022/07/19 10:48:39;;;;;;;6.20;1.95;;;42.90;60.00;;;;;;5058128;28;20051;-70
2022/07/19 10:51:06;;;;;;;4.75;1.95;;;43.80;59.70;;;;;;5063819;28;20433;-70
2022/07/19 10:53:40;;;;;;;5.25;2.10;;;43.30;59.40;;;;;;5029690;28;20474;-70
2022/07/19 10:56:16;;;;;;;7.47;2.13;;;45.00;61.20;;;;;;5048850;28;20390;-71
2022/07/19 10:59:07;;;;;;;7.30;2.15;;;43.90;58.30;;;;;;5048837;28;20052;-70
2022/07/19 11:01:34;;;;;;;6.53;1.85;;;43.70;58.60;;;;;;5059061;28;20477;-70
2022/07/19 11:04:21;;;;;;;7.75;2.38;;;42.70;57.80;;;;;;5064160;28;20087;-70
2022/07/19 11:06:47;;;;;;;6.00;2.08;;;42.60;58.40;;;;;;5044458;28;20052;-70
2022/07/19 11:09:12;;;;;;;9.00;2.20;;;41.00;58.90;;;;;;5045264;28;20474;-70
2022/07/19 11:11:38;;;;;;;3.65;1.80;;;40.40;59.30;;;;;;5045913;28;20055;-70
2022/07/19 11:14:04;;;;;;;5.05;2.05;;;39.90;59.80;;;;;;5043223;28;20053;-70
2022/07/19 11:16:30;;;;;;;4.55;2.08;;;38.10;60.30;;;;;;5045740;28;20128;-69
2022/07/19 11:19:04;;;;;;;5.22;2.20;;;37.70;61.00;;;;;;5046162;28;20131;-70
2022/07/19 11:21:30;;;;;;;;;;;37.70;61.20;;;;;;5047404;28;20071;-70
2022/07/19 11:23:56;;;;;;;6.60;2.25;;;37.60;61.60;;;;;;5043890;28;20027;-70
2022/07/19 11:26:22;;;;;;;7.28;2.05;;;37.70;62.10;;;;;;5044616;28;20521;-70
2022/07/19 11:28:48;;;;;;;5.07;1.90;;;37.80;61.90;;;;;;5049264;28;20042;-69
2022/07/19 11:31:22;;;;;;;5.55;1.92;;;37.90;59.90;;;;;;5065911;28;20484;-72
2022/07/19 11:33:49;;;;;;;7.82;2.05;;;37.40;59.90;;;;;;5062233;28;20052;-69
2022/07/19 11:36:16;;;;;;;6.10;1.88;;;37.50;60.10;;;;;;5064075;28;20135;-70
2022/07/19 11:38:45;;;;;;;8.80;1.90;;;38.20;59.30;;;;;;5063900;28;20048;-70
2022/07/19 11:41:21;;;;;;;5.03;1.83;;;39.30;60.30;;;;;;5064914;28;20446;-70
2022/07/19 11:43:53;;;;;;;5.93;2.22;;;41.10;60.50;;;;;;5048759;28;20060;-70
2022/07/19 11:46:24;;;;;;;6.55;1.90;;;42.50;59.40;;;;;;5065691;28;20048;-70
2022/07/19 11:48:55;;;;;;;7.10;1.98;;;43.90;59.30;;;;;;5065717;28;20048;-70
2022/07/19 11:51:21;;;;;;;5.18;2.00;;;45.20;58.40;;;;;;5051997;28;20062;-70
2022/07/19 11:53:54;;;;;;;5.03;2.00;;;46.20;57.80;;;;;;5051325;28;20124;-70
2022/07/19 11:56:23;;;;;;;9.45;2.00;;;46.70;57.40;;;;;;5069815;28;20396;-70
2022/07/19 11:58:51;;;;;;;7.10;1.90;;;47.60;57.10;;;;;;5049294;28;20366;-70
2022/07/19 12:01:25;;;;;;;3.75;1.90;;;48.10;56.50;;;;;;5066098;28;20051;-70
2022/07/19 12:03:56;;;;;;;4.68;1.85;;;48.20;54.30;;;;;;5052183;28;20037;-71
2022/07/19 12:06:54;;;;;;;6.38;1.80;;;48.10;54.40;;;;;;5066972;28;20217;-71
2022/07/19 12:09:27;;;;;;;5.93;1.98;;;48.40;54.60;;;;;;5048069;28;20396;-71
2022/07/19 12:11:54;;;;;;;6.40;1.90;;;46.50;52.40;;;;;;5067128;28;20057;-71
2022/07/19 12:14:25;;;;;;;3.63;1.63;;;48.20;54.00;;;;;;5048335;28;20052;-71
2022/07/19 12:17:08;;;;;;;5.63;1.52;;;48.50;51.70;;;;;;5066687;28;20076;-71
2022/07/19 12:19:34;;;;;;;7.47;1.80;;;48.00;51.70;;;;;;5052196;28;20103;-71
2022/07/19 12:21:59;;;;;;;4.35;1.80;;;45.10;50.80;;;;;;5069629;28;20072;-71
2022/07/19 12:24:28;;;;;;;4.40;1.92;;;44.00;53.80;;;;;;5047819;28;20052;-71
2022/07/19 12:27:04;;;;;;;4.88;1.70;;;42.70;54.00;;;;;;5068133;28;20052;-70
2022/07/19 12:29:35;;;;;;;3.45;1.60;;;42.10;54.30;;;;;;5069736;28;20037;-71
2022/07/19 12:32:05;;;;;;;4.00;1.60;;;41.70;53.20;;;;;;5069586;28;20055;-70
2022/07/19 12:34:44;;;;;;;4.18;1.60;;;40.90;53.40;;;;;;5070349;28;20107;-70
2022/07/19 12:37:26;;;;;;;7.75;1.70;;;39.40;52.90;;;;;;5071602;28;20045;-71
2022/07/19 12:40:14;;;;;;;4.05;1.80;;;39.00;53.40;;;;;;5056454;28;20137;-70
2022/07/19 12:43:02;;;;;;;4.50;1.70;;;38.50;53.10;;;;;;5044652;28;20052;-70
2022/07/19 12:45:31;;;;;;;6.00;1.70;;;38.00;53.60;;;;;;5064800;28;20382;-70
2022/07/19 12:47:57;;;;;;;7.10;1.60;;;37.80;55.50;;;;;;5051077;28;20043;-70